createdAt,value
2023-04-01T00:01:45.431Z,93805.78
2023-04-01T00:04:12.601Z,93808.94
2023-04-01T00:06:39.678Z,93812.72
2023-04-01T00:09:07.994Z,93810.16
2023-04-01T00:11:37.663Z,93804.69
2023-04-01T00:14:07.426Z,93795.81
2023-04-01T00:16:39.782Z,93794.00
2023-04-01T00:19:07.072Z,93792.25
2023-04-01T00:21:34.986Z,93797.69
2023-04-01T00:24:02.022Z,93802.22
2023-04-01T00:26:31.693Z,93799.13
2023-04-01T00:29:04.053Z,93801.63
2023-04-01T00:31:31.261Z,93797.19
2023-04-01T00:33:58.419Z,93788.22
2023-04-01T00:36:28.084Z,93798.25
2023-04-01T00:38:55.239Z,93786.97
2023-04-01T00:41:22.441Z,93808.19
2023-04-01T00:43:51.238Z,93815.66
2023-04-01T00:46:19.466Z,93827.19
2023-04-01T00:48:52.648Z,93823.41
2023-04-01T00:51:27.245Z,93818.31
2023-04-01T00:53:59.250Z,93816.78
2023-04-01T00:56:32.933Z,93820.06
2023-04-01T00:59:07.823Z,93815.44
2023-04-01T01:01:35.704Z,93811.06
2023-04-01T01:04:02.898Z,93807.22
2023-04-01T01:06:49.206Z,93801.53
2023-04-01T01:09:43.468Z,93799.97
2023-04-01T01:12:41.718Z,93801.78
2023-04-01T01:15:27.510Z,93798.25
2023-04-01T01:18:04.031Z,93803.88
2023-04-01T01:20:55.865Z,93805.59
2023-04-01T01:23:42.607Z,93812.31
2023-04-01T01:26:45.388Z,93806.47
2023-04-01T01:29:40.498Z,93804.09
2023-04-01T01:32:11.618Z,93800.13
2023-04-01T01:35:12.302Z,93805.66
2023-04-01T01:37:42.159Z,93819.09
2023-04-01T01:40:11.367Z,93820.47
2023-04-01T01:42:43.039Z,93821.69
2023-04-01T01:45:12.682Z,93808.25
2023-04-01T01:47:39.959Z,93806.31
2023-04-01T01:50:09.052Z,93809.31
2023-04-01T01:52:35.787Z,93804.44
2023-04-01T01:55:02.911Z,93788.78
2023-04-01T01:57:49.588Z,93796.84
2023-04-01T02:00:17.538Z,93794.94
2023-04-01T02:02:45.598Z,93783.59
2023-04-01T02:05:16.560Z,93779.56
2023-04-01T02:07:44.472Z,93787.44
2023-04-01T02:10:13.988Z,93788.44
2023-04-01T02:12:43.780Z,93764.84
2023-04-01T02:15:13.860Z,93773.75
2023-04-01T02:17:43.676Z,93768.06
2023-04-01T02:20:14.397Z,93758.84
2023-04-01T02:22:45.481Z,93760.16
2023-04-01T02:25:14.552Z,93758.13
2023-04-01T02:27:41.589Z,93764.03
2023-04-01T02:30:10.598Z,93758.75
2023-04-01T02:32:37.976Z,93768.63
2023-04-01T02:35:09.309Z,93766.47
2023-04-01T02:37:39.157Z,93749.94
2023-04-01T02:40:09.520Z,93733.75
2023-04-01T02:42:39.156Z,93734.34
2023-04-01T02:45:08.046Z,93729.75
2023-04-01T02:47:35.410Z,93726.75
2023-04-01T02:50:05.225Z,93723.38
2023-04-01T02:52:34.809Z,93720.25
2023-04-01T02:55:02.160Z,93725.34
2023-04-01T02:57:29.439Z,93723.78
2023-04-01T02:59:56.602Z,93722.84
2023-04-01T03:02:23.818Z,93729.88
2023-04-01T03:04:51.550Z,93731.16
2023-04-01T03:07:18.676Z,93726.75
2023-04-01T03:09:46.117Z,93733.75
2023-04-01T03:12:17.808Z,93729.50
2023-04-01T03:14:44.874Z,93736.19
2023-04-01T03:17:11.990Z,93739.16
2023-04-01T03:19:39.068Z,93740.88
2023-04-01T03:22:07.261Z,93744.69
2023-04-01T03:24:34.404Z,93743.97
2023-04-01T03:27:03.956Z,93741.72
2023-04-01T03:29:30.942Z,93739.50
2023-04-01T03:31:57.984Z,93743.84
2023-04-01T03:34:28.193Z,93744.66
2023-04-01T03:36:55.190Z,93744.78
2023-04-01T03:39:22.265Z,93746.13
2023-04-01T03:42:22.861Z,93744.28
2023-04-01T03:44:50.592Z,93757.78
2023-04-01T03:47:18.436Z,93765.41
2023-04-01T03:49:45.556Z,93762.72
2023-04-01T03:52:12.690Z,93761.97
2023-04-01T03:54:39.962Z,93755.53
2023-04-01T03:57:07.073Z,93754.19
2023-04-01T03:59:34.398Z,93759.53
2023-04-01T04:02:01.598Z,93752.22
2023-04-01T04:04:29.200Z,93751.00
2023-04-01T04:06:56.326Z,93742.75
2023-04-01T04:09:23.806Z,93736.81
2023-04-01T04:11:52.086Z,93732.56
2023-04-01T04:14:48.910Z,93724.97
2023-04-01T04:17:18.537Z,93729.13
2023-04-01T04:19:46.732Z,93729.31
2023-04-01T04:22:13.965Z,93728.72
2023-04-01T04:24:40.744Z,93738.44
2023-04-01T04:27:07.517Z,93725.00
2023-04-01T04:29:34.194Z,93728.91
2023-04-01T04:32:06.040Z,93721.44
2023-04-01T04:34:33.302Z,93729.56
2023-04-01T04:37:01.833Z,93729.44
2023-04-01T04:39:29.101Z,93737.13
2023-04-01T04:41:56.312Z,93750.22
2023-04-01T04:44:23.774Z,93745.75
2023-04-01T04:46:51.646Z,93748.81
2023-04-01T04:49:24.349Z,93738.28
2023-04-01T04:51:54.121Z,93744.94
2023-04-01T04:54:22.125Z,93741.56
2023-04-01T04:56:50.452Z,93744.31
2023-04-01T04:59:17.673Z,93750.59
2023-04-01T05:01:47.608Z,93748.25
2023-04-01T05:04:16.273Z,93734.72
2023-04-01T05:06:44.066Z,93745.88
2023-04-01T05:09:11.826Z,93747.41
2023-04-01T05:11:38.975Z,93740.31
2023-04-01T05:14:06.830Z,93741.56
2023-04-01T05:16:37.083Z,93750.63
2023-04-01T05:19:03.897Z,93753.72
2023-04-01T05:21:30.999Z,93749.75
2023-04-01T05:23:57.731Z,93754.06
2023-04-01T05:26:24.873Z,93757.59
2023-04-01T05:28:51.599Z,93761.00
2023-04-01T05:31:18.376Z,93766.41
2023-04-01T05:33:45.506Z,93766.13
2023-04-01T05:40:06.289Z,93755.31
2023-04-01T05:42:33.056Z,93763.81
2023-04-01T05:44:59.851Z,93758.69
2023-04-01T05:47:26.636Z,93754.00
2023-04-01T05:49:53.419Z,93750.66
2023-04-01T05:52:20.553Z,93751.88
2023-04-01T05:54:47.675Z,93750.03
2023-04-01T05:57:16.258Z,93750.66
2023-04-01T05:59:43.205Z,93747.06
2023-04-01T06:02:10.391Z,93752.81
2023-04-01T06:04:39.231Z,93755.94
2023-04-01T06:07:18.129Z,93758.34
2023-04-01T06:09:45.200Z,93766.47
2023-04-01T06:12:35.422Z,93765.88
2023-04-01T06:15:14.667Z,93760.06
2023-04-01T06:18:24.247Z,93755.38
2023-04-01T06:21:02.991Z,93749.56
2023-04-01T06:23:35.068Z,93745.88
2023-04-01T06:26:34.635Z,93739.97
2023-04-01T06:29:39.932Z,93741.78
2023-04-01T06:32:28.955Z,93755.53
2023-04-01T06:34:59.608Z,93755.63
2023-04-01T06:38:04.061Z,93753.34
2023-04-01T06:40:49.641Z,93768.22
2023-04-01T06:43:35.896Z,93767.78
2023-04-01T06:50:09.205Z,93785.41
2023-04-01T06:52:46.461Z,93787.59
2023-04-01T06:55:21.139Z,93789.28
2023-04-01T06:57:50.775Z,93782.97
2023-04-01T07:00:31.144Z,93784.00
2023-04-01T07:03:05.512Z,93791.09
2023-04-01T07:05:33.884Z,93790.94
2023-04-01T07:08:03.096Z,93790.56
2023-04-01T07:11:03.893Z,93792.88
2023-04-01T07:13:35.565Z,93788.16
2023-04-01T07:16:27.050Z,93798.00
2023-04-01T07:18:54.659Z,93792.28
2023-04-01T07:21:33.466Z,93797.41
2023-04-01T07:24:17.791Z,93798.38
2023-04-01T07:26:45.551Z,93806.47
2023-04-01T07:29:13.779Z,93808.25
2023-04-01T07:32:16.953Z,93822.72
2023-04-01T07:35:15.192Z,93827.31
2023-04-01T07:38:07.245Z,93838.59
2023-04-01T07:41:01.899Z,93831.19
2023-04-01T07:43:34.836Z,93833.50
2023-04-01T07:46:15.142Z,93821.44
2023-04-01T07:49:12.674Z,93824.63
2023-04-01T07:52:07.071Z,93827.88
2023-04-01T07:54:37.258Z,93829.72
2023-04-01T07:57:22.185Z,93833.19
2023-04-01T08:00:07.841Z,93826.72
2023-04-01T08:03:02.853Z,93830.88
2023-04-01T08:05:33.155Z,93830.06
2023-04-01T08:08:02.885Z,93825.19
2023-04-01T08:10:32.575Z,93826.00
2023-04-01T08:13:23.396Z,93822.63
2023-04-01T08:15:50.312Z,93826.69
2023-04-01T08:18:49.469Z,93823.53
2023-04-01T08:21:30.316Z,93828.28
2023-04-01T08:24:05.413Z,93825.19
2023-04-01T08:26:35.320Z,93822.41
2023-04-01T08:29:11.465Z,93828.34
2023-04-01T08:31:41.220Z,93826.81
2023-04-01T08:34:17.728Z,93827.53
2023-04-01T08:36:47.054Z,93822.59
2023-04-01T08:39:17.692Z,93830.25
2023-04-01T08:42:06.128Z,93843.16
2023-04-01T08:44:55.346Z,93854.03
2023-04-01T08:47:57.808Z,93845.41
2023-04-01T08:50:27.960Z,93846.13
2023-04-01T08:53:22.221Z,93838.00
2023-04-01T08:56:37.036Z,93836.47
2023-04-01T08:59:12.782Z,93836.06
2023-04-01T09:01:58.772Z,93830.09
2023-04-01T09:04:46.908Z,93829.41
2023-04-01T09:07:20.545Z,93826.69
2023-04-01T09:09:56.477Z,93827.53
2023-04-01T09:13:06.441Z,93838.28
2023-04-01T09:15:39.375Z,93826.03
2023-04-01T09:18:42.148Z,93822.91
2023-04-01T09:21:36.905Z,93837.19
2023-04-01T09:24:36.102Z,93839.75
2023-04-01T09:27:22.272Z,93837.69
2023-04-01T09:30:08.129Z,93834.00
2023-04-01T09:33:08.026Z,93835.09
2023-04-01T09:35:47.721Z,93826.03
2023-04-01T09:38:24.904Z,93822.56
2023-04-01T09:41:14.265Z,93835.44
2023-04-01T09:44:03.858Z,93833.06
2023-04-01T09:47:07.844Z,93842.34
2023-04-01T09:49:52.705Z,93833.50
2023-04-01T09:52:38.127Z,93834.66
2023-04-01T09:55:44.100Z,93829.25
2023-04-01T09:58:48.298Z,93824.78
2023-04-01T10:01:57.419Z,93823.91
2023-04-01T10:04:47.282Z,93827.56
2023-04-01T10:07:36.916Z,93830.34
2023-04-01T10:10:19.024Z,93835.69
2023-04-01T10:12:51.640Z,93831.34
2023-04-01T10:15:46.331Z,93835.28
2023-04-01T10:18:54.371Z,93823.78
2023-04-01T10:21:28.595Z,93820.56
2023-04-01T10:24:20.412Z,93816.91
2023-04-01T10:31:08.959Z,93810.94
2023-04-01T10:33:47.741Z,93811.97
2023-04-01T10:36:32.213Z,93799.75
2023-04-01T10:39:23.549Z,93800.91
2023-04-01T10:42:09.197Z,93787.34
2023-04-01T10:45:01.884Z,93783.56
2023-04-01T10:47:47.463Z,93789.41
2023-04-01T10:50:33.663Z,93797.75
2023-04-01T10:53:20.620Z,93782.38
2023-04-01T10:55:55.350Z,93790.72
2023-04-01T10:58:45.178Z,93786.72
2023-04-01T11:05:07.574Z,93781.59
2023-04-01T11:08:04.868Z,93782.34
2023-04-01T11:11:11.106Z,93765.84
2023-04-01T11:13:59.260Z,93785.78
2023-04-01T11:17:10.071Z,93812.97
2023-04-01T11:19:46.048Z,93805.00
2023-04-01T11:22:22.248Z,93810.00
2023-04-01T11:24:56.277Z,93814.31
2023-04-01T11:27:39.488Z,93819.94
2023-04-01T11:30:32.573Z,93808.25
2023-04-01T11:33:10.503Z,93799.91
2023-04-01T11:35:48.639Z,93778.19
2023-04-01T11:38:37.188Z,93786.34
2023-04-01T11:41:25.699Z,93783.38
2023-04-01T11:44:18.118Z,93786.38
2023-04-01T11:50:37.388Z,93773.31
2023-04-01T11:53:51.826Z,93773.00
2023-04-01T11:56:46.154Z,93771.88
2023-04-01T11:59:42.747Z,93762.72
2023-04-01T12:02:34.807Z,93761.88
2023-04-01T12:05:16.671Z,93754.53
2023-04-01T12:07:52.847Z,93755.47
2023-04-01T12:13:53.943Z,93742.50
2023-04-01T12:16:35.471Z,93745.09
2023-04-01T12:19:42.188Z,93739.50
2023-04-01T12:22:22.034Z,93729.97
2023-04-01T12:25:08.776Z,93729.25
2023-04-01T12:28:09.241Z,93731.50
2023-04-01T12:30:57.208Z,93717.88
2023-04-01T12:33:51.370Z,93722.19
2023-04-01T12:36:40.136Z,93711.13
2023-04-01T12:39:23.011Z,93722.16
2023-04-01T12:42:07.836Z,93717.31
2023-04-01T12:44:43.347Z,93709.88
2023-04-01T12:47:13.165Z,93700.69
2023-04-01T12:50:11.465Z,93706.06
2023-04-01T12:53:21.127Z,93695.06
2023-04-01T12:55:48.722Z,93697.50
2023-04-01T12:59:06.809Z,93697.59
2023-04-01T13:01:50.767Z,93696.97
2023-04-01T13:05:02.786Z,93692.34
2023-04-01T13:07:32.303Z,93695.59
2023-04-01T13:10:04.519Z,93692.94
2023-04-01T13:13:14.244Z,93681.91
2023-04-01T13:16:17.990Z,93683.00
2023-04-01T13:18:56.045Z,93698.75
2023-04-01T13:21:41.720Z,93687.44
2023-04-01T13:24:23.593Z,93681.31
2023-04-01T13:27:16.529Z,93674.09
2023-04-01T13:33:47.468Z,93662.81
2023-04-01T13:36:45.521Z,93654.81
2023-04-01T13:39:41.317Z,93643.97
2023-04-01T13:42:28.787Z,93648.16
2023-04-01T13:45:13.301Z,93651.59
2023-04-01T13:48:08.460Z,93646.78
2023-04-01T13:51:14.198Z,93647.22
2023-04-01T13:53:56.353Z,93641.22
2023-04-01T13:56:44.568Z,93647.16
2023-04-01T13:59:30.124Z,93633.00
2023-04-01T14:02:20.618Z,93636.53
2023-04-01T14:05:22.358Z,93638.38
2023-04-01T14:08:15.421Z,93640.97
2023-04-01T14:14:57.055Z,93633.38
2023-04-01T14:17:32.868Z,93633.94
2023-04-01T14:20:12.533Z,93630.22
2023-04-01T14:22:58.981Z,93630.47
2023-04-01T14:26:05.787Z,93636.81
2023-04-01T14:28:48.235Z,93629.53
2023-04-01T14:31:33.974Z,93641.09
2023-04-01T14:34:12.549Z,93632.25
2023-04-01T14:36:49.550Z,93634.34
2023-04-01T14:39:48.977Z,93634.69
2023-04-01T14:42:24.901Z,93616.19
2023-04-01T14:45:03.562Z,93610.16
2023-04-01T14:48:08.581Z,93614.09
2023-04-01T14:50:43.100Z,93622.56
2023-04-01T14:53:19.143Z,93630.56
2023-04-01T14:55:52.444Z,93624.41
2023-04-01T14:58:21.469Z,93636.34
2023-04-01T15:00:49.379Z,93642.13
2023-04-01T15:03:33.772Z,93652.00
2023-04-01T15:06:37.948Z,93639.81
2023-04-01T15:09:19.989Z,93647.38
2023-04-01T15:11:52.101Z,93642.19
2023-04-01T15:14:28.927Z,93636.69
2023-04-01T15:17:33.368Z,93640.91
2023-04-01T15:20:09.889Z,93636.78
2023-04-01T15:23:14.035Z,93640.66
2023-04-01T15:26:08.574Z,93638.03
2023-04-01T15:28:43.721Z,93638.31
2023-04-01T15:31:30.238Z,93623.63
2023-04-01T15:34:21.784Z,93624.50
2023-04-01T15:37:12.190Z,93623.47
2023-04-01T15:39:50.037Z,93626.69
2023-04-01T15:42:57.304Z,93619.03
2023-04-01T15:49:21.549Z,93612.13
2023-04-01T15:51:54.277Z,93615.97
2023-04-01T15:54:47.457Z,93615.75
2023-04-01T15:57:32.668Z,93627.78
2023-04-01T16:00:05.330Z,93626.09
2023-04-01T16:02:42.294Z,93625.44
2023-04-01T16:05:49.337Z,93621.91
2023-04-01T16:08:19.002Z,93623.16
2023-04-01T16:11:12.709Z,93628.50
2023-04-01T16:14:05.920Z,93622.72
2023-04-01T16:16:46.024Z,93628.44
2023-04-01T16:19:41.073Z,93634.66
2023-04-01T16:22:36.691Z,93631.38
2023-04-01T16:28:41.629Z,93630.75
2023-04-01T16:31:15.992Z,93627.22
2023-04-01T16:33:50.131Z,93625.16
2023-04-01T16:36:37.317Z,93636.13
2023-04-01T16:39:45.164Z,93625.81
2023-04-01T16:42:23.346Z,93631.88
2023-04-01T16:45:01.908Z,93630.13
2023-04-01T16:47:42.083Z,93629.47
2023-04-01T16:50:42.812Z,93629.34
2023-04-01T16:53:12.841Z,93638.44
2023-04-01T16:56:05.818Z,93637.44
2023-04-01T16:59:08.752Z,93634.66
2023-04-01T17:10:01.813Z,93642.72
2023-04-01T17:12:40.011Z,93645.91
2023-04-01T17:15:36.593Z,93652.50
2023-04-01T17:18:41.164Z,93656.59
2023-04-01T17:21:19.553Z,93658.28
2023-04-01T17:23:52.550Z,93658.03
2023-04-01T17:26:58.274Z,93663.88
2023-04-01T17:29:36.797Z,93666.56
2023-04-01T17:32:16.320Z,93665.03
2023-04-01T17:35:06.133Z,93668.78
2023-04-01T17:37:56.066Z,93680.72
2023-04-01T17:40:32.782Z,93674.28
2023-04-01T17:43:20.936Z,93672.56
2023-04-01T17:46:24.731Z,93678.72
2023-04-01T17:48:58.192Z,93679.50
2023-04-01T17:51:32.254Z,93691.03
2023-04-01T17:54:14.552Z,93702.19
2023-04-01T17:56:50.267Z,93704.63
2023-04-01T18:02:20.369Z,93709.56
2023-04-01T18:04:55.057Z,93705.97
2023-04-01T18:07:32.490Z,93708.19
2023-04-01T18:10:27.933Z,93712.66
2023-04-01T18:13:13.163Z,93715.31
2023-04-01T18:18:42.833Z,93722.31
2023-04-01T18:21:40.419Z,93721.84
2023-04-01T18:24:15.414Z,93726.69
2023-04-01T18:26:44.398Z,93732.38
2023-04-01T18:29:17.816Z,93734.75
2023-04-01T18:31:47.074Z,93734.34
2023-04-01T18:34:40.772Z,93738.50
2023-04-01T18:37:17.005Z,93739.03
2023-04-01T18:39:55.145Z,93743.13
2023-04-01T18:42:59.375Z,93745.56
2023-04-01T18:49:37.821Z,93757.84
2023-04-01T18:52:18.853Z,93752.16
2023-04-01T18:55:03.760Z,93756.19
2023-04-01T18:57:44.133Z,93758.91
2023-04-01T19:00:36.032Z,93763.34
2023-04-01T19:03:21.433Z,93763.84
2023-04-01T19:05:49.321Z,93763.53
2023-04-01T19:08:27.106Z,93770.13
2023-04-01T19:11:02.850Z,93772.72
2023-04-01T19:13:48.536Z,93776.44
2023-04-01T19:16:39.253Z,93784.47
2023-04-01T19:19:36.062Z,93786.06
2023-04-01T19:22:27.008Z,93795.56
2023-04-01T19:25:15.873Z,93792.22
2023-04-01T19:27:53.917Z,93797.34
2023-04-01T19:30:32.003Z,93794.56
2023-04-01T19:33:23.968Z,93800.75
2023-04-01T19:36:21.393Z,93804.75
2023-04-01T19:39:26.266Z,93805.19
2023-04-01T19:42:00.569Z,93808.53
2023-04-01T19:45:13.145Z,93804.03
2023-04-01T19:48:05.555Z,93807.00
2023-04-01T19:50:35.266Z,93806.09
2023-04-01T19:53:12.572Z,93816.66
2023-04-01T19:55:50.710Z,93808.63
2023-04-01T19:58:38.657Z,93811.56
2023-04-01T20:05:00.224Z,93828.41
2023-04-01T20:07:44.935Z,93827.63
2023-04-01T20:10:46.726Z,93829.81
2023-04-01T20:13:24.388Z,93824.72
2023-04-01T20:16:09.078Z,93820.06
2023-04-01T20:18:49.464Z,93827.47
2023-04-01T20:21:23.567Z,93829.16
2023-04-01T20:24:24.089Z,93828.81
2023-04-01T20:27:08.657Z,93832.38
2023-04-01T20:30:05.388Z,93829.59
2023-04-01T20:32:48.003Z,93834.75
2023-04-01T20:35:32.665Z,93838.47
2023-04-01T20:38:23.017Z,93837.50
2023-04-01T20:44:45.413Z,93841.50
2023-04-01T20:47:33.597Z,93840.69
2023-04-01T20:50:37.830Z,93841.06
2023-04-01T20:53:17.367Z,93835.28
2023-04-01T20:56:23.573Z,93842.63
2023-04-01T20:59:38.383Z,93852.97
2023-04-01T21:02:23.546Z,93847.28
2023-04-01T21:05:34.686Z,93847.88
2023-04-01T21:08:10.000Z,93847.13
2023-04-01T21:10:39.649Z,93843.09
2023-04-01T21:13:27.893Z,93847.41
2023-04-01T21:16:09.586Z,93855.44
2023-04-01T21:19:00.999Z,93846.63
2023-04-01T21:22:21.894Z,93853.09
2023-04-01T21:24:56.601Z,93854.50
2023-04-01T21:27:47.553Z,93859.78
2023-04-01T21:34:32.881Z,93859.63
2023-04-01T21:37:18.354Z,93857.63
2023-04-01T21:39:44.909Z,93842.28
2023-04-01T21:42:35.572Z,93856.41
2023-04-01T21:45:11.318Z,93849.88
2023-04-01T21:47:49.317Z,93852.41
2023-04-01T21:50:46.911Z,93859.34
2023-04-01T21:53:32.950Z,93860.56
2023-04-01T21:56:14.886Z,93863.81
2023-04-01T21:59:00.300Z,93844.44
2023-04-01T22:01:42.431Z,93855.56
2023-04-01T22:04:22.068Z,93851.81
2023-04-01T22:07:05.948Z,93858.44
2023-04-01T22:09:36.105Z,93862.97
2023-04-01T22:12:07.425Z,93877.06
2023-04-01T22:14:54.189Z,93865.34
2023-04-01T22:17:23.298Z,93872.50
2023-04-01T22:19:57.261Z,93879.44
2023-04-01T22:22:44.280Z,93875.88
2023-04-01T22:25:16.228Z,93871.38
2023-04-01T22:27:48.356Z,93875.84
2023-04-01T22:30:23.844Z,93876.19
2023-04-01T22:32:51.813Z,93865.03
2023-04-01T22:35:52.207Z,93865.03
2023-04-01T22:38:24.490Z,93863.19
2023-04-01T22:41:00.175Z,93859.28
2023-04-01T22:43:45.244Z,93864.97
2023-04-01T22:46:21.136Z,93854.59
2023-04-01T22:49:01.588Z,93853.88
2023-04-01T22:51:55.343Z,93862.03
2023-04-01T22:54:34.559Z,93850.75
2023-04-01T22:57:08.775Z,93866.91
2023-04-01T23:00:19.201Z,93863.06
2023-04-01T23:03:09.967Z,93873.53
2023-04-01T23:05:38.514Z,93871.22
2023-04-01T23:08:24.756Z,93866.59
2023-04-01T23:10:53.718Z,93869.19
2023-04-01T23:13:23.506Z,93879.25
2023-04-01T23:15:50.263Z,93883.75
2023-04-01T23:18:40.213Z,93874.88
2023-04-01T23:21:14.110Z,93874.41
2023-04-01T23:23:53.608Z,93870.41
2023-04-01T23:26:37.392Z,93878.63
2023-04-01T23:29:04.130Z,93888.69
2023-04-01T23:31:31.749Z,93881.75
2023-04-01T23:34:02.329Z,93882.69
2023-04-01T23:36:30.698Z,93875.06
2023-04-01T23:38:57.411Z,93869.66
2023-04-01T23:41:30.394Z,93880.44
2023-04-01T23:44:09.745Z,93881.25
2023-04-01T23:46:36.583Z,93884.69
2023-04-01T23:49:03.752Z,93887.13
2023-04-01T23:51:37.353Z,93883.31
2023-04-01T23:54:05.209Z,93888.06
2023-04-01T23:56:38.412Z,93898.53
2023-04-01T23:59:05.234Z,93893.94
